sensor_id;sensor_type;location;lat;lon;timestamp;P1;durP1;ratioP1;P2;durP2;ratioP2
65035;SDS011;51603;49.300;8.880;2023-05-07T00:00:20;5.70;;;5.10;;
65035;SDS011;51603;49.300;8.880;2023-05-07T00:02:46;5.20;;;4.70;;
65035;SDS011;51603;49.300;8.880;2023-05-07T00:05:12;5.90;;;5.30;;
65035;SDS011;51603;49.300;8.880;2023-05-07T00:07:38;5.90;;;4.33;;
65035;SDS011;51603;49.300;8.880;2023-05-07T00:10:04;5.43;;;4.93;;
65035;SDS011;51603;49.300;8.880;2023-05-07T00:12:31;5.40;;;4.90;;
65035;SDS011;51603;49.300;8.880;2023-05-07T00:14:58;5.30;;;4.83;;
65035;SDS011;51603;49.300;8.880;2023-05-07T00:17:25;6.50;;;5.30;;
65035;SDS011;51603;49.300;8.880;2023-05-07T00:19:51;5.80;;;5.30;;
65035;SDS011;51603;49.300;8.880;2023-05-07T00:22:16;5.10;;;4.60;;
65035;SDS011;51603;49.300;8.880;2023-05-07T00:24:42;5.73;;;5.20;;
65035;SDS011;51603;49.300;8.880;2023-05-07T00:27:07;5.53;;;4.80;;
65035;SDS011;51603;49.300;8.880;2023-05-07T00:29:33;4.80;;;4.40;;
65035;SDS011;51603;49.300;8.880;2023-05-07T00:31:59;4.47;;;4.07;;
65035;SDS011;51603;49.300;8.880;2023-05-07T00:34:24;5.00;;;4.60;;
65035;SDS011;51603;49.300;8.880;2023-05-07T00:36:50;5.03;;;4.63;;
65035;SDS011;51603;49.300;8.880;2023-05-07T00:39:15;5.00;;;3.87;;
65035;SDS011;51603;49.300;8.880;2023-05-07T00:41:41;7.33;;;4.60;;
65035;SDS011;51603;49.300;8.880;2023-05-07T00:44:07;4.50;;;4.00;;
65035;SDS011;51603;49.300;8.880;2023-05-07T00:46:32;4.50;;;4.10;;
65035;SDS011;51603;49.300;8.880;2023-05-07T00:48:59;5.00;;;4.50;;
65035;SDS011;51603;49.300;8.880;2023-05-07T00:51:25;4.70;;;4.30;;
65035;SDS011;51603;49.300;8.880;2023-05-07T00:53:52;5.73;;;5.07;;
65035;SDS011;51603;49.300;8.880;2023-05-07T00:56:18;4.70;;;4.27;;
65035;SDS011;51603;49.300;8.880;2023-05-07T00:58:45;6.67;;;4.40;;
65035;SDS011;51603;49.300;8.880;2023-05-07T01:01:11;5.73;;;4.20;;
65035;SDS011;51603;49.300;8.880;2023-05-07T01:03:36;6.10;;;4.97;;
65035;SDS011;51603;49.300;8.880;2023-05-07T01:06:02;4.50;;;4.10;;
65035;SDS011;51603;49.300;8.880;2023-05-07T01:08:29;4.27;;;3.87;;
65035;SDS011;51603;49.300;8.880;2023-05-07T01:10:56;4.50;;;4.10;;
65035;SDS011;51603;49.300;8.880;2023-05-07T01:13:22;5.63;;;3.97;;
65035;SDS011;51603;49.300;8.880;2023-05-07T01:15:49;4.90;;;4.40;;
65035;SDS011;51603;49.300;8.880;2023-05-07T01:18:15;4.40;;;4.03;;
65035;SDS011;51603;49.300;8.880;2023-05-07T01:20:41;4.70;;;4.20;;
65035;SDS011;51603;49.300;8.880;2023-05-07T01:23:07;4.83;;;4.13;;
65035;SDS011;51603;49.300;8.880;2023-05-07T01:25:34;4.37;;;3.97;;
65035;SDS011;51603;49.300;8.880;2023-05-07T01:28:00;4.53;;;4.13;;
65035;SDS011;51603;49.300;8.880;2023-05-07T01:30:26;4.67;;;4.20;;
65035;SDS011;51603;49.300;8.880;2023-05-07T01:33:06;4.40;;;3.70;;
65035;SDS011;51603;49.300;8.880;2023-05-07T01:35:36;4.40;;;4.00;;
65035;SDS011;51603;49.300;8.880;2023-05-07T01:38:05;4.53;;;3.70;;
65035;SDS011;51603;49.300;8.880;2023-05-07T01:40:32;3.97;;;3.57;;
65035;SDS011;51603;49.300;8.880;2023-05-07T01:42:59;5.30;;;3.63;;
65035;SDS011;51603;49.300;8.880;2023-05-07T01:45:25;4.17;;;3.87;;
65035;SDS011;51603;49.300;8.880;2023-05-07T01:47:51;5.17;;;4.00;;
65035;SDS011;51603;49.300;8.880;2023-05-07T01:50:18;5.57;;;3.93;;
65035;SDS011;51603;49.300;8.880;2023-05-07T01:52:45;4.20;;;3.80;;
65035;SDS011;51603;49.300;8.880;2023-05-07T01:55:11;3.93;;;3.63;;
65035;SDS011;51603;49.300;8.880;2023-05-07T01:57:37;4.40;;;4.00;;
65035;SDS011;51603;49.300;8.880;2023-05-07T02:00:03;4.63;;;4.10;;
65035;SDS011;51603;49.300;8.880;2023-05-07T02:02:30;7.37;;;4.10;;
65035;SDS011;51603;49.300;8.880;2023-05-07T02:04:56;5.33;;;3.70;;
65035;SDS011;51603;49.300;8.880;2023-05-07T02:07:22;3.80;;;3.50;;
65035;SDS011;51603;49.300;8.880;2023-05-07T02:09:47;4.73;;;4.10;;
65035;SDS011;51603;49.300;8.880;2023-05-07T02:12:13;4.23;;;3.93;;
65035;SDS011;51603;49.300;8.880;2023-05-07T02:14:38;3.90;;;3.50;;
65035;SDS011;51603;49.300;8.880;2023-05-07T02:17:04;4.30;;;3.90;;
65035;SDS011;51603;49.300;8.880;2023-05-07T02:19:29;6.43;;;3.67;;
65035;SDS011;51603;49.300;8.880;2023-05-07T02:21:55;3.77;;;3.47;;
65035;SDS011;51603;49.300;8.880;2023-05-07T02:24:21;4.50;;;4.10;;
65035;SDS011;51603;49.300;8.880;2023-05-07T02:26:46;4.03;;;3.73;;
65035;SDS011;51603;49.300;8.880;2023-05-07T02:29:12;3.30;;;3.00;;
65035;SDS011;51603;49.300;8.880;2023-05-07T02:31:37;4.80;;;3.90;;
65035;SDS011;51603;49.300;8.880;2023-05-07T02:34:03;4.47;;;4.07;;
65035;SDS011;51603;49.300;8.880;2023-05-07T02:36:28;5.40;;;4.20;;
65035;SDS011;51603;49.300;8.880;2023-05-07T02:38:54;5.37;;;4.63;;
65035;SDS011;51603;49.300;8.880;2023-05-07T02:41:20;5.67;;;4.70;;
65035;SDS011;51603;49.300;8.880;2023-05-07T02:43:45;5.07;;;3.60;;
65035;SDS011;51603;49.300;8.880;2023-05-07T02:46:11;3.93;;;3.63;;
65035;SDS011;51603;49.300;8.880;2023-05-07T02:48:38;4.40;;;4.10;;
65035;SDS011;51603;49.300;8.880;2023-05-07T02:51:03;4.73;;;4.23;;
65035;SDS011;51603;49.300;8.880;2023-05-07T02:53:30;5.40;;;3.67;;
65035;SDS011;51603;49.300;8.880;2023-05-07T02:55:57;10.40;;;4.47;;
65035;SDS011;51603;49.300;8.880;2023-05-07T02:58:23;4.40;;;3.50;;
65035;SDS011;51603;49.300;8.880;2023-05-07T03:00:49;4.70;;;4.20;;
65035;SDS011;51603;49.300;8.880;2023-05-07T03:03:15;4.13;;;3.73;;
65035;SDS011;51603;49.300;8.880;2023-05-07T03:05:41;4.00;;;3.70;;
65035;SDS011;51603;49.300;8.880;2023-05-07T03:08:07;3.57;;;3.23;;
65035;SDS011;51603;49.300;8.880;2023-05-07T03:10:33;3.80;;;3.50;;
65035;SDS011;51603;49.300;8.880;2023-05-07T03:12:59;3.80;;;3.50;;
65035;SDS011;51603;49.300;8.880;2023-05-07T03:15:24;4.90;;;4.37;;
65035;SDS011;51603;49.300;8.880;2023-05-07T03:17:50;3.70;;;3.03;;
65035;SDS011;51603;49.300;8.880;2023-05-07T03:20:15;4.10;;;3.80;;
65035;SDS011;51603;49.300;8.880;2023-05-07T03:22:41;4.37;;;3.97;;
65035;SDS011;51603;49.300;8.880;2023-05-07T03:25:07;4.90;;;4.40;;
65035;SDS011;51603;49.300;8.880;2023-05-07T03:27:33;4.93;;;3.80;;
65035;SDS011;51603;49.300;8.880;2023-05-07T03:29:59;3.60;;;3.30;;
65035;SDS011;51603;49.300;8.880;2023-05-07T03:32:25;4.77;;;3.80;;
65035;SDS011;51603;49.300;8.880;2023-05-07T03:34:50;3.53;;;3.23;;
65035;SDS011;51603;49.300;8.880;2023-05-07T03:37:16;4.37;;;3.97;;
65035;SDS011;51603;49.300;8.880;2023-05-07T03:39:41;5.47;;;3.90;;
65035;SDS011;51603;49.300;8.880;2023-05-07T03:42:07;4.83;;;4.10;;
65035;SDS011;51603;49.300;8.880;2023-05-07T03:44:33;5.10;;;3.87;;
65035;SDS011;51603;49.300;8.880;2023-05-07T03:46:58;4.73;;;4.33;;
65035;SDS011;51603;49.300;8.880;2023-05-07T03:49:24;4.57;;;4.13;;
65035;SDS011;51603;49.300;8.880;2023-05-07T03:51:49;7.50;;;3.70;;
65035;SDS011;51603;49.300;8.880;2023-05-07T03:54:15;4.10;;;3.77;;
65035;SDS011;51603;49.300;8.880;2023-05-07T03:56:41;4.23;;;3.80;;
65035;SDS011;51603;49.300;8.880;2023-05-07T03:59:06;3.77;;;3.47;;
65035;SDS011;51603;49.300;8.880;2023-05-07T04:01:32;4.77;;;4.10;;
65035;SDS011;51603;49.300;8.880;2023-05-07T04:03:57;6.67;;;4.27;;
65035;SDS011;51603;49.300;8.880;2023-05-07T04:06:23;4.00;;;3.60;;
65035;SDS011;51603;49.300;8.880;2023-05-07T04:08:49;4.03;;;3.73;;
65035;SDS011;51603;49.300;8.880;2023-05-07T04:11:14;4.30;;;3.47;;
65035;SDS011;51603;49.300;8.880;2023-05-07T04:13:40;4.17;;;3.87;;
65035;SDS011;51603;49.300;8.880;2023-05-07T04:16:06;3.53;;;3.23;;
65035;SDS011;51603;49.300;8.880;2023-05-07T04:18:31;3.67;;;3.37;;
65035;SDS011;51603;49.300;8.880;2023-05-07T04:20:57;3.70;;;3.40;;
65035;SDS011;51603;49.300;8.880;2023-05-07T04:23:22;4.20;;;3.80;;
65035;SDS011;51603;49.300;8.880;2023-05-07T04:25:48;4.00;;;3.70;;
65035;SDS011;51603;49.300;8.880;2023-05-07T04:28:13;5.10;;;4.00;;
65035;SDS011;51603;49.300;8.880;2023-05-07T04:30:39;4.40;;;4.00;;
65035;SDS011;51603;49.300;8.880;2023-05-07T04:33:06;4.50;;;4.10;;
65035;SDS011;51603;49.300;8.880;2023-05-07T04:35:31;3.87;;;3.57;;
65035;SDS011;51603;49.300;8.880;2023-05-07T04:37:57;5.53;;;3.90;;
65035;SDS011;51603;49.300;8.880;2023-05-07T04:40:23;6.63;;;3.70;;
65035;SDS011;51603;49.300;8.880;2023-05-07T04:42:48;5.50;;;4.23;;
65035;SDS011;51603;49.300;8.880;2023-05-07T04:45:14;5.30;;;4.13;;
65035;SDS011;51603;49.300;8.880;2023-05-07T04:47:40;4.20;;;3.87;;
65035;SDS011;51603;49.300;8.880;2023-05-07T04:50:06;4.67;;;3.83;;
65035;SDS011;51603;49.300;8.880;2023-05-07T04:52:33;4.30;;;3.90;;
65035;SDS011;51603;49.300;8.880;2023-05-07T04:54:59;5.90;;;4.37;;
65035;SDS011;51603;49.300;8.880;2023-05-07T04:57:25;5.10;;;3.80;;
65035;SDS011;51603;49.300;8.880;2023-05-07T04:59:51;4.07;;;3.67;;
65035;SDS011;51603;49.300;8.880;2023-05-07T05:02:17;5.87;;;3.73;;
65035;SDS011;51603;49.300;8.880;2023-05-07T05:04:42;4.10;;;3.70;;
65035;SDS011;51603;49.300;8.880;2023-05-07T05:07:08;6.97;;;4.33;;
65035;SDS011;51603;49.300;8.880;2023-05-07T05:09:33;5.13;;;4.20;;
65035;SDS011;51603;49.300;8.880;2023-05-07T05:11:59;6.00;;;4.87;;
65035;SDS011;51603;49.300;8.880;2023-05-07T05:14:25;5.23;;;4.73;;
65035;SDS011;51603;49.300;8.880;2023-05-07T05:16:50;4.93;;;4.07;;
65035;SDS011;51603;49.300;8.880;2023-05-07T05:19:16;4.27;;;3.87;;
65035;SDS011;51603;49.300;8.880;2023-05-07T05:21:42;5.17;;;4.77;;
65035;SDS011;51603;49.300;8.880;2023-05-07T05:24:07;4.63;;;4.30;;
65035;SDS011;51603;49.300;8.880;2023-05-07T05:26:33;5.67;;;4.37;;
65035;SDS011;51603;49.300;8.880;2023-05-07T05:28:59;4.70;;;4.20;;
65035;SDS011;51603;49.300;8.880;2023-05-07T05:31:24;3.67;;;3.37;;
65035;SDS011;51603;49.300;8.880;2023-05-07T05:33:50;3.90;;;3.60;;
65035;SDS011;51603;49.300;8.880;2023-05-07T05:36:15;4.30;;;4.00;;
65035;SDS011;51603;49.300;8.880;2023-05-07T05:38:41;3.90;;;3.40;;
65035;SDS011;51603;49.300;8.880;2023-05-07T05:41:07;4.50;;;4.10;;
65035;SDS011;51603;49.300;8.880;2023-05-07T05:43:33;4.20;;;3.67;;
65035;SDS011;51603;49.300;8.880;2023-05-07T05:45:58;5.43;;;3.87;;
65035;SDS011;51603;49.300;8.880;2023-05-07T05:48:25;4.60;;;3.67;;
65035;SDS011;51603;49.300;8.880;2023-05-07T05:50:50;4.03;;;3.30;;
65035;SDS011;51603;49.300;8.880;2023-05-07T05:53:16;5.13;;;4.40;;
65035;SDS011;51603;49.300;8.880;2023-05-07T05:55:42;4.23;;;3.83;;
65035;SDS011;51603;49.300;8.880;2023-05-07T05:58:08;6.23;;;4.30;;
65035;SDS011;51603;49.300;8.880;2023-05-07T06:00:34;4.43;;;4.03;;
65035;SDS011;51603;49.300;8.880;2023-05-07T06:03:00;5.20;;;3.67;;
65035;SDS011;51603;49.300;8.880;2023-05-07T06:05:25;4.20;;;3.80;;
65035;SDS011;51603;49.300;8.880;2023-05-07T06:07:51;4.20;;;3.80;;
65035;SDS011;51603;49.300;8.880;2023-05-07T06:10:17;4.70;;;4.30;;
65035;SDS011;51603;49.300;8.880;2023-05-07T06:12:42;4.97;;;4.47;;
65035;SDS011;51603;49.300;8.880;2023-05-07T06:15:08;4.50;;;4.10;;
65035;SDS011;51603;49.300;8.880;2023-05-07T06:17:34;4.23;;;3.87;;
65035;SDS011;51603;49.300;8.880;2023-05-07T06:19:59;4.87;;;4.30;;
65035;SDS011;51603;49.300;8.880;2023-05-07T06:22:25;5.23;;;4.50;;
65035;SDS011;51603;49.300;8.880;2023-05-07T06:24:51;4.80;;;4.40;;
65035;SDS011;51603;49.300;8.880;2023-05-07T06:27:16;3.90;;;3.60;;
65035;SDS011;51603;49.300;8.880;2023-05-07T06:29:42;3.47;;;3.17;;
65035;SDS011;51603;49.300;8.880;2023-05-07T06:32:08;4.50;;;4.10;;
65035;SDS011;51603;49.300;8.880;2023-05-07T06:34:37;3.80;;;3.50;;
65035;SDS011;51603;49.300;8.880;2023-05-07T06:37:03;5.57;;;4.10;;
65035;SDS011;51603;49.300;8.880;2023-05-07T06:39:29;5.03;;;4.20;;
65035;SDS011;51603;49.300;8.880;2023-05-07T06:41:55;5.63;;;4.50;;
65035;SDS011;51603;49.300;8.880;2023-05-07T06:44:21;4.30;;;4.00;;
65035;SDS011;51603;49.300;8.880;2023-05-07T06:46:46;4.57;;;3.87;;
65035;SDS011;51603;49.300;8.880;2023-05-07T06:49:12;4.23;;;3.83;;
65035;SDS011;51603;49.300;8.880;2023-05-07T06:51:38;5.43;;;3.97;;
65035;SDS011;51603;49.300;8.880;2023-05-07T06:54:04;4.73;;;4.30;;
65035;SDS011;51603;49.300;8.880;2023-05-07T06:56:30;3.80;;;3.50;;
65035;SDS011;51603;49.300;8.880;2023-05-07T06:58:56;4.17;;;3.87;;
65035;SDS011;51603;49.300;8.880;2023-05-07T07:01:21;4.30;;;3.80;;
65035;SDS011;51603;49.300;8.880;2023-05-07T07:03:47;3.20;;;2.80;;
65035;SDS011;51603;49.300;8.880;2023-05-07T07:06:12;3.40;;;3.10;;
65035;SDS011;51603;49.300;8.880;2023-05-07T07:08:38;3.73;;;2.90;;
65035;SDS011;51603;49.300;8.880;2023-05-07T07:11:04;7.63;;;4.20;;
65035;SDS011;51603;49.300;8.880;2023-05-07T07:13:30;3.50;;;3.20;;
65035;SDS011;51603;49.300;8.880;2023-05-07T07:15:56;4.53;;;3.93;;
65035;SDS011;51603;49.300;8.880;2023-05-07T07:18:21;4.77;;;3.57;;
65035;SDS011;51603;49.300;8.880;2023-05-07T07:20:47;4.00;;;3.60;;
65035;SDS011;51603;49.300;8.880;2023-05-07T07:23:13;4.67;;;3.53;;
65035;SDS011;51603;49.300;8.880;2023-05-07T07:25:39;4.50;;;4.10;;
65035;SDS011;51603;49.300;8.880;2023-05-07T07:28:05;3.40;;;3.00;;
65035;SDS011;51603;49.300;8.880;2023-05-07T07:30:30;3.47;;;2.97;;
65035;SDS011;51603;49.300;8.880;2023-05-07T07:32:56;3.57;;;3.27;;
65035;SDS011;51603;49.300;8.880;2023-05-07T07:35:27;3.00;;;2.80;;
65035;SDS011;51603;49.300;8.880;2023-05-07T07:37:55;5.53;;;3.60;;
65035;SDS011;51603;49.300;8.880;2023-05-07T07:40:21;3.10;;;2.80;;
65035;SDS011;51603;49.300;8.880;2023-05-07T07:42:47;3.90;;;3.60;;
65035;SDS011;51603;49.300;8.880;2023-05-07T07:45:13;5.80;;;3.00;;
65035;SDS011;51603;49.300;8.880;2023-05-07T07:47:39;4.00;;;2.80;;
65035;SDS011;51603;49.300;8.880;2023-05-07T07:50:05;3.20;;;2.87;;
65035;SDS011;51603;49.300;8.880;2023-05-07T07:52:31;3.23;;;2.93;;
65035;SDS011;51603;49.300;8.880;2023-05-07T07:54:57;3.53;;;2.87;;
65035;SDS011;51603;49.300;8.880;2023-05-07T07:57:23;3.30;;;3.00;;
65035;SDS011;51603;49.300;8.880;2023-05-07T07:59:49;3.13;;;2.83;;
65035;SDS011;51603;49.300;8.880;2023-05-07T08:02:15;2.93;;;2.73;;
65035;SDS011;51603;49.300;8.880;2023-05-07T08:04:40;3.27;;;2.97;;
65035;SDS011;51603;49.300;8.880;2023-05-07T08:07:08;3.40;;;2.87;;
65035;SDS011;51603;49.300;8.880;2023-05-07T08:09:37;3.63;;;3.00;;
65035;SDS011;51603;49.300;8.880;2023-05-07T08:12:03;3.37;;;3.07;;
65035;SDS011;51603;49.300;8.880;2023-05-07T08:14:29;3.33;;;2.80;;
65035;SDS011;51603;49.300;8.880;2023-05-07T08:16:55;3.03;;;2.60;;
65035;SDS011;51603;49.300;8.880;2023-05-07T08:19:21;2.83;;;2.63;;
65035;SDS011;51603;49.300;8.880;2023-05-07T08:21:47;3.20;;;2.87;;
65035;SDS011;51603;49.300;8.880;2023-05-07T08:24:13;3.43;;;2.67;;
65035;SDS011;51603;49.300;8.880;2023-05-07T08:26:39;4.70;;;2.57;;
65035;SDS011;51603;49.300;8.880;2023-05-07T08:29:05;3.10;;;2.80;;
65035;SDS011;51603;49.300;8.880;2023-05-07T08:31:30;3.20;;;2.90;;
65035;SDS011;51603;49.300;8.880;2023-05-07T08:33:57;3.10;;;2.80;;
65035;SDS011;51603;49.300;8.880;2023-05-07T08:36:23;4.27;;;2.60;;
65035;SDS011;51603;49.300;8.880;2023-05-07T08:38:49;3.30;;;2.53;;
65035;SDS011;51603;49.300;8.880;2023-05-07T08:41:15;3.10;;;2.80;;
65035;SDS011;51603;49.300;8.880;2023-05-07T08:43:41;2.47;;;2.27;;
65035;SDS011;51603;49.300;8.880;2023-05-07T08:46:10;4.53;;;2.67;;
65035;SDS011;51603;49.300;8.880;2023-05-07T08:48:36;4.20;;;2.70;;
65035;SDS011;51603;49.300;8.880;2023-05-07T08:51:02;2.57;;;2.37;;
65035;SDS011;51603;49.300;8.880;2023-05-07T08:53:28;2.63;;;2.43;;
65035;SDS011;51603;49.300;8.880;2023-05-07T08:55:53;3.37;;;2.60;;
65035;SDS011;51603;49.300;8.880;2023-05-07T08:58:20;3.83;;;2.40;;
65035;SDS011;51603;49.300;8.880;2023-05-07T09:00:46;5.13;;;2.80;;
65035;SDS011;51603;49.300;8.880;2023-05-07T09:03:12;3.10;;;2.70;;
65035;SDS011;51603;49.300;8.880;2023-05-07T09:05:39;2.80;;;2.20;;
65035;SDS011;51603;49.300;8.880;2023-05-07T09:08:05;3.10;;;2.27;;
65035;SDS011;51603;49.300;8.880;2023-05-07T09:10:32;3.37;;;2.70;;
65035;SDS011;51603;49.300;8.880;2023-05-07T09:12:59;4.10;;;2.50;;
65035;SDS011;51603;49.300;8.880;2023-05-07T09:15:25;3.20;;;2.23;;
65035;SDS011;51603;49.300;8.880;2023-05-07T09:17:51;2.80;;;2.60;;
65035;SDS011;51603;49.300;8.880;2023-05-07T09:20:17;2.80;;;2.20;;
65035;SDS011;51603;49.300;8.880;2023-05-07T09:22:43;2.67;;;2.47;;
65035;SDS011;51603;49.300;8.880;2023-05-07T09:25:09;2.90;;;2.60;;
65035;SDS011;51603;49.300;8.880;2023-05-07T09:27:35;2.53;;;2.30;;
65035;SDS011;51603;49.300;8.880;2023-05-07T09:30:04;4.57;;;2.87;;
65035;SDS011;51603;49.300;8.880;2023-05-07T09:32:34;2.80;;;2.60;;
65035;SDS011;51603;49.300;8.880;2023-05-07T09:35:01;3.03;;;2.67;;
65035;SDS011;51603;49.300;8.880;2023-05-07T09:37:27;3.70;;;2.40;;
65035;SDS011;51603;49.300;8.880;2023-05-07T09:39:55;2.50;;;2.30;;
65035;SDS011;51603;49.300;8.880;2023-05-07T09:42:24;3.03;;;2.70;;
65035;SDS011;51603;49.300;8.880;2023-05-07T09:44:51;2.67;;;2.47;;
65035;SDS011;51603;49.300;8.880;2023-05-07T09:47:18;2.80;;;2.53;;
65035;SDS011;51603;49.300;8.880;2023-05-07T09:49:46;3.03;;;2.40;;
65035;SDS011;51603;49.300;8.880;2023-05-07T09:52:13;2.50;;;2.27;;
65035;SDS011;51603;49.300;8.880;2023-05-07T09:54:40;3.30;;;2.23;;
65035;SDS011;51603;49.300;8.880;2023-05-07T09:57:08;3.43;;;2.20;;
65035;SDS011;51603;49.300;8.880;2023-05-07T09:59:36;2.77;;;2.20;;
65035;SDS011;51603;49.300;8.880;2023-05-07T10:02:03;3.17;;;2.30;;
65035;SDS011;51603;49.300;8.880;2023-05-07T10:04:30;5.23;;;3.33;;
65035;SDS011;51603;49.300;8.880;2023-05-07T10:06:56;3.60;;;2.23;;
65035;SDS011;51603;49.300;8.880;2023-05-07T10:09:23;2.50;;;2.30;;
65035;SDS011;51603;49.300;8.880;2023-05-07T10:11:51;3.30;;;2.70;;
65035;SDS011;51603;49.300;8.880;2023-05-07T10:14:16;5.50;;;2.67;;
65035;SDS011;51603;49.300;8.880;2023-05-07T10:16:42;3.60;;;2.60;;
65035;SDS011;51603;49.300;8.880;2023-05-07T10:19:08;4.13;;;2.70;;
65035;SDS011;51603;49.300;8.880;2023-05-07T10:21:37;3.03;;;2.10;;
65035;SDS011;51603;49.300;8.880;2023-05-07T10:24:05;4.77;;;2.13;;
65035;SDS011;51603;49.300;8.880;2023-05-07T10:26:42;4.10;;;2.20;;
65035;SDS011;51603;49.300;8.880;2023-05-07T10:29:56;4.10;;;2.83;;
65035;SDS011;51603;49.300;8.880;2023-05-07T10:32:17;4.00;;;2.70;;
65035;SDS011;51603;49.300;8.880;2023-05-07T10:34:56;5.17;;;2.40;;
65035;SDS011;51603;49.300;8.880;2023-05-07T10:37:26;5.10;;;3.30;;
65035;SDS011;51603;49.300;8.880;2023-05-07T10:39:52;4.67;;;2.67;;
65035;SDS011;51603;49.300;8.880;2023-05-07T10:42:17;3.63;;;2.43;;
65035;SDS011;51603;49.300;8.880;2023-05-07T10:44:43;4.20;;;2.13;;
65035;SDS011;51603;49.300;8.880;2023-05-07T10:47:13;5.17;;;2.50;;
65035;SDS011;51603;49.300;8.880;2023-05-07T10:52:12;5.60;;;2.47;;
65035;SDS011;51603;49.300;8.880;2023-05-07T10:54:45;5.40;;;2.37;;
65035;SDS011;51603;49.300;8.880;2023-05-07T10:59:58;6.90;;;2.37;;
65035;SDS011;51603;49.300;8.880;2023-05-07T11:02:42;4.63;;;2.13;;
65035;SDS011;51603;49.300;8.880;2023-05-07T11:05:25;4.07;;;1.70;;
65035;SDS011;51603;49.300;8.880;2023-05-07T11:07:55;3.60;;;2.00;;
65035;SDS011;51603;49.300;8.880;2023-05-07T11:10:21;3.40;;;2.03;;
65035;SDS011;51603;49.300;8.880;2023-05-07T11:12:51;5.50;;;2.10;;
65035;SDS011;51603;49.300;8.880;2023-05-07T11:18:18;4.70;;;2.50;;
65035;SDS011;51603;49.300;8.880;2023-05-07T11:20:50;3.40;;;1.97;;
65035;SDS011;51603;49.300;8.880;2023-05-07T11:26:01;3.80;;;2.10;;
65035;SDS011;51603;49.300;8.880;2023-05-07T11:28:36;3.83;;;2.20;;
65035;SDS011;51603;49.300;8.880;2023-05-07T11:31:03;4.50;;;1.90;;
65035;SDS011;51603;49.300;8.880;2023-05-07T11:33:32;3.10;;;1.90;;
65035;SDS011;51603;49.300;8.880;2023-05-07T11:36:02;3.40;;;2.20;;
65035;SDS011;51603;49.300;8.880;2023-05-07T11:38:29;3.97;;;2.27;;
65035;SDS011;51603;49.300;8.880;2023-05-07T11:40:59;3.70;;;1.73;;
65035;SDS011;51603;49.300;8.880;2023-05-07T11:43:29;5.63;;;2.10;;
65035;SDS011;51603;49.300;8.880;2023-05-07T11:45:58;4.13;;;2.30;;
65035;SDS011;51603;49.300;8.880;2023-05-07T11:48:33;3.93;;;2.10;;
65035;SDS011;51603;49.300;8.880;2023-05-07T11:51:02;4.33;;;1.93;;
65035;SDS011;51603;49.300;8.880;2023-05-07T11:53:37;4.80;;;2.17;;
65035;SDS011;51603;49.300;8.880;2023-05-07T11:56:11;4.33;;;2.07;;
65035;SDS011;51603;49.300;8.880;2023-05-07T11:58:38;4.23;;;2.27;;
65035;SDS011;51603;49.300;8.880;2023-05-07T12:01:06;3.40;;;1.93;;
65035;SDS011;51603;49.300;8.880;2023-05-07T12:03:33;5.27;;;2.60;;
65035;SDS011;51603;49.300;8.880;2023-05-07T12:05:59;4.63;;;2.20;;
65035;SDS011;51603;49.300;8.880;2023-05-07T12:08:25;3.13;;;1.80;;
65035;SDS011;51603;49.300;8.880;2023-05-07T12:10:50;3.57;;;2.10;;
65035;SDS011;51603;49.300;8.880;2023-05-07T12:13:23;5.10;;;2.20;;
65035;SDS011;51603;49.300;8.880;2023-05-07T12:15:50;4.30;;;2.23;;
65035;SDS011;51603;49.300;8.880;2023-05-07T12:18:16;4.10;;;1.97;;
65035;SDS011;51603;49.300;8.880;2023-05-07T12:20:42;3.50;;;2.00;;
65035;SDS011;51603;49.300;8.880;2023-05-07T12:23:08;5.27;;;2.27;;
65035;SDS011;51603;49.300;8.880;2023-05-07T12:25:35;3.30;;;2.03;;
65035;SDS011;51603;49.300;8.880;2023-05-07T12:28:02;3.00;;;1.40;;
65035;SDS011;51603;49.300;8.880;2023-05-07T12:30:29;3.60;;;2.10;;
65035;SDS011;51603;49.300;8.880;2023-05-07T12:33:04;4.60;;;2.07;;
65035;SDS011;51603;49.300;8.880;2023-05-07T12:35:31;4.03;;;2.07;;
65035;SDS011;51603;49.300;8.880;2023-05-07T12:38:01;5.97;;;1.90;;
65035;SDS011;51603;49.300;8.880;2023-05-07T12:40:39;4.30;;;2.07;;
65035;SDS011;51603;49.300;8.880;2023-05-07T12:43:16;4.27;;;2.10;;
65035;SDS011;51603;49.300;8.880;2023-05-07T12:45:47;3.33;;;1.97;;
65035;SDS011;51603;49.300;8.880;2023-05-07T12:48:14;6.57;;;2.10;;
65035;SDS011;51603;49.300;8.880;2023-05-07T12:50:40;4.03;;;2.00;;
65035;SDS011;51603;49.300;8.880;2023-05-07T12:53:06;4.90;;;2.20;;
65035;SDS011;51603;49.300;8.880;2023-05-07T12:55:40;3.30;;;1.97;;
65035;SDS011;51603;49.300;8.880;2023-05-07T12:58:17;3.63;;;1.70;;
65035;SDS011;51603;49.300;8.880;2023-05-07T13:00:44;4.77;;;1.97;;
65035;SDS011;51603;49.300;8.880;2023-05-07T13:03:16;4.43;;;2.07;;
65035;SDS011;51603;49.300;8.880;2023-05-07T13:05:49;3.47;;;2.00;;
65035;SDS011;51603;49.300;8.880;2023-05-07T13:08:25;3.53;;;2.17;;
65035;SDS011;51603;49.300;8.880;2023-05-07T13:10:54;4.00;;;2.00;;
65035;SDS011;51603;49.300;8.880;2023-05-07T13:13:20;3.57;;;1.97;;
65035;SDS011;51603;49.300;8.880;2023-05-07T13:15:47;3.43;;;2.17;;
65035;SDS011;51603;49.300;8.880;2023-05-07T13:18:13;3.43;;;1.97;;
65035;SDS011;51603;49.300;8.880;2023-05-07T13:20:38;3.63;;;1.97;;
65035;SDS011;51603;49.300;8.880;2023-05-07T13:23:04;3.20;;;2.17;;
65035;SDS011;51603;49.300;8.880;2023-05-07T13:25:30;4.83;;;1.93;;
65035;SDS011;51603;49.300;8.880;2023-05-07T13:27:58;3.63;;;2.10;;
65035;SDS011;51603;49.300;8.880;2023-05-07T13:30:24;3.93;;;2.47;;
65035;SDS011;51603;49.300;8.880;2023-05-07T13:32:50;3.50;;;2.00;;
65035;SDS011;51603;49.300;8.880;2023-05-07T13:35:17;3.00;;;1.70;;
65035;SDS011;51603;49.300;8.880;2023-05-07T13:37:42;4.77;;;2.90;;
65035;SDS011;51603;49.300;8.880;2023-05-07T13:40:08;3.37;;;2.10;;
65035;SDS011;51603;49.300;8.880;2023-05-07T13:42:34;6.57;;;1.63;;
65035;SDS011;51603;49.300;8.880;2023-05-07T13:45:00;4.50;;;2.20;;
65035;SDS011;51603;49.300;8.880;2023-05-07T13:47:25;3.10;;;1.83;;
65035;SDS011;51603;49.300;8.880;2023-05-07T13:49:51;3.57;;;2.10;;
65035;SDS011;51603;49.300;8.880;2023-05-07T13:52:17;5.83;;;2.00;;
65035;SDS011;51603;49.300;8.880;2023-05-07T13:54:44;3.67;;;1.73;;
65035;SDS011;51603;49.300;8.880;2023-05-07T13:57:10;4.13;;;2.00;;
65035;SDS011;51603;49.300;8.880;2023-05-07T13:59:35;5.07;;;2.13;;
65035;SDS011;51603;49.300;8.880;2023-05-07T14:02:01;3.87;;;2.30;;
65035;SDS011;51603;49.300;8.880;2023-05-07T14:04:26;5.03;;;2.90;;
65035;SDS011;51603;49.300;8.880;2023-05-07T14:06:52;4.67;;;2.40;;
65035;SDS011;51603;49.300;8.880;2023-05-07T14:09:17;3.77;;;2.20;;
65035;SDS011;51603;49.300;8.880;2023-05-07T14:11:43;3.70;;;1.87;;
65035;SDS011;51603;49.300;8.880;2023-05-07T14:14:09;3.93;;;2.10;;
65035;SDS011;51603;49.300;8.880;2023-05-07T14:16:35;3.67;;;1.97;;
65035;SDS011;51603;49.300;8.880;2023-05-07T14:19:01;3.30;;;2.10;;
65035;SDS011;51603;49.300;8.880;2023-05-07T14:21:27;4.93;;;2.17;;
65035;SDS011;51603;49.300;8.880;2023-05-07T14:23:53;4.20;;;2.30;;
65035;SDS011;51603;49.300;8.880;2023-05-07T14:26:18;4.77;;;1.90;;
65035;SDS011;51603;49.300;8.880;2023-05-07T14:28:45;5.40;;;1.80;;
65035;SDS011;51603;49.300;8.880;2023-05-07T14:31:11;3.90;;;1.50;;
65035;SDS011;51603;49.300;8.880;2023-05-07T14:33:37;5.27;;;1.90;;
65035;SDS011;51603;49.300;8.880;2023-05-07T14:36:03;5.20;;;1.97;;
65035;SDS011;51603;49.300;8.880;2023-05-07T14:38:29;2.43;;;1.80;;
65035;SDS011;51603;49.300;8.880;2023-05-07T14:40:55;15.83;;;3.00;;
65035;SDS011;51603;49.300;8.880;2023-05-07T14:43:21;3.93;;;2.10;;
65035;SDS011;51603;49.300;8.880;2023-05-07T14:45:47;4.33;;;2.00;;
65035;SDS011;51603;49.300;8.880;2023-05-07T14:48:12;2.70;;;2.07;;
65035;SDS011;51603;49.300;8.880;2023-05-07T14:50:40;2.50;;;1.97;;
65035;SDS011;51603;49.300;8.880;2023-05-07T14:53:06;4.27;;;1.80;;
65035;SDS011;51603;49.300;8.880;2023-05-07T14:55:32;4.07;;;2.00;;